Dungannon, Ohio
Current Conditions -  °F | °C
As of 11:53 PM on Sunday 21 Dec 2014 (Local Time) from KPKB Reporting Station
Clear Clear  
Wind Chill: 24°   Ceiling: Unl
Heat Index: 29°   Visibility: 8mi
Dew Point: 23°   Wind: 5mph
Humidity: 78%   Direction: 90°E
Pressure: 30.18"   Gusts: NA
Location:  39.5678°N, 81.5815°W
Report Text: KPKB 220453Z AUTO 09004KT 8SM CLR M02/M05 A3018 RMK AO2 SLP227 T10171050 400561028
Loading
Personal Weather Stations






























Interactive Weather Map New forecast layout! Learn more

10-Day Weather Forecast

Advertisements
Track Severe Weather on mobile